createdAt,value
2022-10-19T08:51:36.769Z,12.60
2022-10-19T09:11:34.307Z,12.47
2022-10-19T09:39:29.840Z,15.17
2022-10-19T09:55:01.816Z,14.43
2022-10-19T10:29:15.826Z,14.07
2022-10-19T10:50:01.847Z,14.03
2022-10-19T11:29:44.987Z,12.50
2022-10-19T11:34:40.407Z,12.23
2022-10-19T11:39:13.827Z,14.53
2022-10-19T11:43:36.227Z,10.73
2022-10-19T11:48:01.384Z,12.87
2022-10-19T11:52:27.225Z,12.50
2022-10-19T11:57:03.307Z,14.03
2022-10-19T12:01:34.107Z,16.73
2022-10-19T12:05:56.964Z,16.73
2022-10-19T12:10:20.126Z,15.97
2022-10-19T12:14:40.500Z,18.57
2022-10-19T12:19:01.107Z,15.90
2022-10-19T12:23:27.187Z,15.40
2022-10-19T12:27:39.109Z,17.17
2022-10-19T12:31:51.047Z,19.00
2022-10-19T12:36:25.110Z,21.43
2022-10-19T12:40:40.366Z,18.03
2022-10-19T12:45:29.946Z,18.27
2022-10-19T12:49:50.826Z,16.80
2022-10-19T12:54:12.485Z,18.40
2022-10-19T12:58:27.126Z,23.77
2022-10-19T13:02:40.849Z,18.90
2022-10-19T13:06:54.346Z,16.83
2022-10-19T13:16:03.884Z,22.73
2022-10-19T13:25:42.828Z,23.13
2022-10-19T13:30:01.030Z,23.70
2022-10-19T13:34:22.888Z,24.67
2022-10-19T13:38:55.551Z,28.20
2022-10-19T13:43:40.548Z,25.83
2022-10-19T14:22:48.885Z,30.97
2022-10-19T14:27:10.010Z,34.10
2022-10-19T14:36:39.285Z,30.80
2022-10-19T14:41:12.467Z,26.37
2022-10-19T14:46:07.031Z,30.37
2022-10-19T15:00:03.755Z,28.03
2022-10-19T15:04:28.208Z,21.33
2022-10-19T15:55:33.105Z,10.70
2022-10-19T15:59:43.767Z,15.93
2022-10-19T16:03:55.745Z,11.80
2022-10-19T16:08:10.084Z,8.70
2022-10-19T16:12:52.144Z,11.50
2022-10-19T16:17:01.650Z,13.77
2022-10-19T16:21:12.924Z,13.57
2022-10-19T16:25:22.709Z,11.27
2022-10-19T16:29:33.765Z,12.70
2022-10-19T16:33:43.227Z,9.63
2022-10-19T16:37:52.885Z,6.67
2022-10-19T16:42:02.449Z,7.80
2022-10-19T16:46:14.032Z,12.80
2022-10-19T16:50:23.586Z,7.23
2022-10-19T16:54:33.086Z,9.43
2022-10-19T16:58:42.585Z,12.07
2022-10-19T17:02:57.226Z,10.13
2022-10-19T17:07:08.508Z,12.57
2022-10-19T17:11:21.525Z,9.53
2022-10-19T17:15:42.891Z,7.13
2022-10-19T17:19:54.626Z,8.00
2022-10-19T17:28:28.988Z,11.57
2022-10-19T17:32:38.306Z,8.17
2022-10-19T17:36:49.804Z,9.27
2022-10-19T17:41:04.368Z,12.90
2022-10-19T17:45:14.006Z,8.73
2022-10-19T17:49:23.628Z,9.17
2022-10-19T17:53:37.926Z,8.40
2022-10-19T17:57:50.468Z,8.63
2022-10-19T18:01:59.909Z,8.27
2022-10-19T18:06:11.432Z,9.23
2022-10-19T18:10:22.567Z,10.50
2022-10-19T18:14:33.229Z,13.53
2022-10-19T18:18:46.133Z,8.73
2022-10-19T18:23:22.147Z,7.17
2022-10-19T18:28:01.509Z,8.70
2022-10-19T18:32:11.048Z,10.40
2022-10-19T18:36:20.426Z,12.10
2022-10-19T18:40:30.486Z,10.27
2022-10-19T18:44:41.569Z,8.87
2022-10-19T18:48:51.390Z,14.27
2022-10-19T18:53:00.630Z,11.17
2022-10-19T18:57:10.046Z,11.37
2022-10-19T19:01:23.436Z,11.57
2022-10-19T19:05:35.201Z,8.03
2022-10-19T19:09:44.951Z,11.90
2022-10-19T19:13:59.928Z,10.87
2022-10-19T19:18:23.914Z,8.73
2022-10-19T19:22:36.792Z,12.27
2022-10-19T19:26:49.730Z,14.37
2022-10-19T19:31:04.687Z,14.43
2022-10-19T19:35:15.767Z,13.77
2022-10-19T19:44:09.306Z,12.43
2022-10-19T20:02:46.127Z,13.10
2022-10-19T20:07:15.247Z,11.93
2022-10-19T20:25:51.647Z,11.97
2022-10-19T20:30:01.849Z,11.20
2022-10-19T20:47:42.111Z,11.07
2022-10-19T20:51:51.750Z,14.27
2022-10-19T20:56:14.191Z,13.63
2022-10-19T21:00:24.127Z,15.17
2022-10-19T21:04:48.089Z,16.47
2022-10-19T21:09:43.965Z,10.87
2022-10-19T21:23:45.007Z,11.70
2022-10-19T21:27:56.469Z,15.93
2022-10-19T21:41:28.957Z,14.93
2022-10-19T21:45:48.381Z,12.37
2022-10-19T21:54:57.908Z,13.27
2022-10-19T21:59:29.064Z,17.23
2022-10-19T22:03:42.758Z,12.40
2022-10-19T22:07:53.082Z,10.53
2022-10-19T22:12:05.904Z,14.10
2022-10-19T22:16:33.009Z,12.77
2022-10-19T22:20:50.049Z,16.03
2022-10-19T22:25:17.711Z,14.50
2022-10-19T22:29:30.032Z,17.57
2022-10-19T22:33:41.767Z,17.20
2022-10-19T22:37:52.134Z,12.27
2022-10-19T22:47:33.273Z,14.00
2022-10-19T23:01:53.584Z,10.43
2022-10-19T23:16:17.387Z,13.47
2022-10-19T23:46:30.012Z,10.73
